Estill Springs, Tennessee
Current Conditions -  °F | °C
As of 12:35 PM on Thursday 27 Nov 2014 (Local Time) from KBGF Reporting Station
Overcast Overcast  
Wind Chill: 31°   Ceiling: 3000
Heat Index: 37°   Visibility: 10mi
Dew Point: 28°   Wind: 9mph
Humidity: 70%   Direction: 310°NW
Pressure: 30.36"   Gusts: NA
Location:  35.27°N, 86.13°W
Report Text: KBGF 271835Z AUTO 31008KT 10SM BKN030 OVC035 03/M02 A3036 RMK
Loading
Personal Weather Stations






























Interactive Weather Map New forecast layout! Learn more

10-Day Weather Forecast

Advertisements
Track Severe Weather on mobile